METAR AND TAF INFORMATION
METAR FOR FMMI
ADDS - METARS form results

(0603 UTC 23 May 2019)
Data provider http://aviationweather.gov/metar/data/
 
METAR text: FMMI 230600Z 00000KT 2000 BR FEW007 17/17 Q1023 BECMG 6000 NSW
Conditions at: FMMI (ANTANANARIVO/IVA, KM) observed 0600 UTC 23 May 2019
Temperature: 17.0°C (63°F)
Dewpoint: 17.0°C (63°F) [RH = 100%]
Pressure (altimeter): 30.21 inches Hg (1023.0 mb)
Winds: calm
Visibility: 1.24 miles (2.00 km)
Ceiling: at least 12,000 feet AGL
Clouds: few clouds at 700 feet AGL
Weather: BR  (mist)

METAR text: FMMI 230553Z 00000KT 2000 BR FEW007 18/17 Q1023 BECMG 6000 NSW
Conditions at: FMMI (ANTANANARIVO/IVA, KM) observed 0553 UTC 23 May 2019
Temperature: 18.0°C (64°F)
Dewpoint: 17.0°C (63°F) [RH = 94%]
Pressure (altimeter): 30.21 inches Hg (1023.0 mb)
Winds: calm
Visibility: 1.24 miles (2.00 km)
Ceiling: at least 12,000 feet AGL
Clouds: few clouds at 700 feet AGL
Weather: BR  (mist)

METAR text: FMMI 230546Z VRB02KT 1000 R11/1400N FG FEW007 17/17 Q1023 BECMG 3000 BR
Conditions at: FMMI (ANTANANARIVO/IVA, KM) observed 0546 UTC 23 May 2019
Temperature: 17.0°C (63°F)
Dewpoint: 17.0°C (63°F) [RH = 100%]
Pressure (altimeter): 30.21 inches Hg (1023.0 mb)
Winds: variable direction winds at 2 MPH (2 knots; 1.0 m/s)
Visibility: 0.62 miles (1.00 km)
Ceiling: at least 12,000 feet AGL
Clouds: few clouds at 700 feet AGL
Weather: FG  (fog)

METAR text: FMMI 230536Z VRB01KT 0800 R11/0900U FG FEW003 17/17 Q1023 BECMG 3000 BR
Conditions at: FMMI (ANTANANARIVO/IVA, KM) observed 0536 UTC 23 May 2019
Temperature: 17.0°C (63°F)
Dewpoint: 17.0°C (63°F) [RH = 100%]
Pressure (altimeter): 30.21 inches Hg (1023.0 mb)
Winds: variable direction winds at 1 MPH (1 knots; 0.5 m/s)
Visibility: 0.50 miles (0.80 km)
Ceiling: at least 12,000 feet AGL
Clouds: few clouds at 300 feet AGL
Weather: FG  (fog)

METAR text: FMMI 230530Z VRB01KT 0700 R11/0750N FG VV003 17/17 Q1022 TEMPO 0800
Conditions at: FMMI (ANTANANARIVO/IVA, KM) observed 0530 UTC 23 May 2019
Temperature: 17.0°C (63°F)
Dewpoint: 17.0°C (63°F) [RH = 100%]
Pressure (altimeter): 30.18 inches Hg (1022.0 mb)
Winds: variable direction winds at 1 MPH (1 knots; 0.5 m/s)
Visibility: 0.43 miles (0.69 km)
Ceiling: indefinite ceiling with vertical visibility of 300 feet AGL
Clouds: obscured sky
Weather: FG  (fog)

METAR text: FMMI 230513Z VRB02KT 0600 R11/0600U FG FEW003 17/16 Q1022 BECMG 0800
Conditions at: FMMI (ANTANANARIVO/IVA, KM) observed 0513 UTC 23 May 2019
Temperature: 17.0°C (63°F)
Dewpoint: 16.0°C (61°F) [RH = 94%]
Pressure (altimeter): 30.18 inches Hg (1022.0 mb)
Winds: variable direction winds at 2 MPH (2 knots; 1.0 m/s)
Visibility: 0.37 miles (0.60 km)
Ceiling: at least 12,000 feet AGL
Clouds: few clouds at 300 feet AGL
Weather: FG  (fog)

Forecast for: FMMI (ANTANANARIVO/IVA, KM)
Text: TAF FMMI 230500Z 2306/2412 VRB04KT 9999 FEW017 SCT020
Forecast period: 0600 UTC 23 May 2019 to 1200 UTC 24 May 2019
Forecast type: FROM: standard forecast or significant change
Winds: variable direction winds at 5 MPH (4 knots; 2.1 m/s)
Visibility: 6 or more miles 10+ km)
Ceiling: at least 12,000 feet AGL
Clouds: few clouds at 1700 feet AGL
scattered clouds at 2000 feet AGL
Weather: no significant weather forecast for this period
Text: PROB40 2401/2405 0800 FG BKN004
Forecast period: 0100 to 0500 UTC 24 May 2019
Forecast type: PROBABLE: 40 percent likelihood of the following during this time
Visibility: 0.50 miles (0.80 km)
Ceiling: 400 feet AGL
Clouds: broken clouds at 400 feet AGL
Weather: FG  (fog)

 AIRPORT MAP

 RUNWAY INFORMATION
Runway 11 Runway length 10171 ft Runway width 148 ft
Runway elevation 4197 ft Runway displaced threshold 0 ft Runway heading 99
Runway 29 Runway length 10171 ft Runway width 148 ft
Runway elevation 4117 ft Runway displaced threshold 0 ft Runway heading 279

 AIRPORT FREQUENCIES
Type TWR Name TWR Frequency 120.1 MHZ

 AIRPORT NEAR NAVIGATION AIDS
Type VOR-DME Name Ivato Frequency 114500 KHZ



Powered by Virtual Airlines Manager [v2.6.2]